createdAt,value
2019-04-07T00:01:27.548Z,32.42
2019-04-07T00:03:57.233Z,33.30
2019-04-07T00:06:27.002Z,34.33
2019-04-07T00:08:56.836Z,30.40
2019-04-07T00:11:26.622Z,29.25
2019-04-07T00:13:57.983Z,29.10
2019-04-07T00:16:27.709Z,37.67
2019-04-07T00:18:57.839Z,34.67
2019-04-07T00:21:28.332Z,28.55
2019-04-07T00:23:58.014Z,27.55
2019-04-07T00:26:27.942Z,32.90
2019-04-07T00:28:57.837Z,32.05
2019-04-07T00:31:30.730Z,27.62
2019-04-07T00:34:00.544Z,29.18
2019-04-07T00:36:30.393Z,26.55
2019-04-07T00:39:01.512Z,30.00
2019-04-07T00:41:32.268Z,27.27
2019-04-07T00:44:02.358Z,27.02
2019-04-07T00:46:32.282Z,29.65
2019-04-07T00:49:01.988Z,29.70
2019-04-07T00:51:32.031Z,30.75
2019-04-07T00:54:01.959Z,31.65
2019-04-07T00:56:31.699Z,36.85
2019-04-07T00:59:02.704Z,33.38
2019-04-07T01:01:32.557Z,30.27
2019-04-07T01:04:02.393Z,32.45
2019-04-07T01:06:32.154Z,33.20
2019-04-07T01:09:01.858Z,30.37
2019-04-07T01:11:33.293Z,34.45
2019-04-07T01:14:03.057Z,34.53
2019-04-07T01:16:32.782Z,30.40
2019-04-07T01:19:02.609Z,29.48
2019-04-07T01:21:32.361Z,35.83
2019-04-07T01:24:03.328Z,32.85
2019-04-07T01:26:34.631Z,35.73
2019-04-07T01:29:04.630Z,34.78
2019-04-07T01:31:35.175Z,30.77
2019-04-07T01:34:05.117Z,33.38
2019-04-07T01:36:34.943Z,28.23
2019-04-07T01:39:09.192Z,32.35
2019-04-07T01:42:05.088Z,35.58
2019-04-07T01:44:57.344Z,33.75
2019-04-07T01:47:33.181Z,30.68
2019-04-07T01:50:16.175Z,33.18
2019-04-07T01:53:05.825Z,32.83
2019-04-07T01:55:45.475Z,31.45
2019-04-07T01:58:32.931Z,34.33
2019-04-07T02:01:17.371Z,34.73
2019-04-07T02:04:12.756Z,32.83
2019-04-07T02:07:08.167Z,34.53
2019-04-07T02:09:49.460Z,36.55
2019-04-07T02:12:38.322Z,30.35
2019-04-07T02:15:16.398Z,30.52
2019-04-07T02:17:52.761Z,31.12
2019-04-07T02:21:04.317Z,36.15
2019-04-07T02:23:52.625Z,32.50
2019-04-07T02:26:40.575Z,29.50
2019-04-07T02:29:38.824Z,33.48
2019-04-07T02:32:27.616Z,32.53
2019-04-07T02:35:17.258Z,34.88
2019-04-07T02:37:55.591Z,32.67
2019-04-07T02:40:32.964Z,36.35
2019-04-07T02:43:34.297Z,33.42
2019-04-07T02:46:21.919Z,33.55
2019-04-07T02:49:10.923Z,29.50
2019-04-07T02:51:54.172Z,35.03
2019-04-07T02:54:43.174Z,33.02
2019-04-07T02:57:19.697Z,31.77
2019-04-07T03:00:07.587Z,31.68
2019-04-07T03:02:56.705Z,31.40
2019-04-07T03:05:34.812Z,31.82
2019-04-07T03:08:23.636Z,31.97
2019-04-07T03:11:11.523Z,36.25
2019-04-07T03:14:03.714Z,30.97
2019-04-07T03:16:42.342Z,30.17
2019-04-07T03:19:41.420Z,31.27
2019-04-07T03:22:33.605Z,31.70
2019-04-07T03:25:11.148Z,31.50
2019-04-07T03:27:59.230Z,27.45
2019-04-07T03:30:45.276Z,32.23
2019-04-07T03:33:37.953Z,31.82
2019-04-07T03:36:20.442Z,33.65
2019-04-07T03:39:26.548Z,36.50
2019-04-07T03:42:24.549Z,32.33
2019-04-07T03:45:13.542Z,31.45
2019-04-07T03:47:47.270Z,32.48
2019-04-07T03:50:23.041Z,32.70
2019-04-07T03:53:10.989Z,32.75
2019-04-07T03:55:56.347Z,32.05
2019-04-07T03:58:50.773Z,31.15
2019-04-07T04:01:38.317Z,34.83
2019-04-07T04:04:25.896Z,30.32
2019-04-07T04:07:20.554Z,29.85
2019-04-07T04:10:11.061Z,30.77
2019-04-07T04:12:49.911Z,30.13
2019-04-07T04:15:26.666Z,30.92
2019-04-07T04:17:57.318Z,32.48
2019-04-07T04:20:28.264Z,34.73
2019-04-07T04:22:58.440Z,34.08
2019-04-07T04:25:28.499Z,31.27
2019-04-07T04:27:59.120Z,36.60
2019-04-07T04:30:29.919Z,31.03
2019-04-07T04:32:59.946Z,31.05
2019-04-07T04:35:30.058Z,34.40
2019-04-07T04:38:00.079Z,35.43
2019-04-07T04:40:32.236Z,33.73
2019-04-07T04:43:03.483Z,34.53
2019-04-07T04:45:33.875Z,30.10
2019-04-07T04:48:04.456Z,29.70
2019-04-07T04:50:35.390Z,32.05
2019-04-07T04:53:06.110Z,29.95
2019-04-07T04:55:36.015Z,34.58
2019-04-07T04:58:05.757Z,35.50
2019-04-07T05:00:36.279Z,31.60
2019-04-07T05:03:07.117Z,33.17
2019-04-07T05:05:37.933Z,33.92
2019-04-07T05:08:08.351Z,31.35
2019-04-07T05:10:38.254Z,29.30
2019-04-07T05:13:07.952Z,30.88
2019-04-07T05:15:37.897Z,34.40
2019-04-07T05:18:08.075Z,36.88
2019-04-07T05:20:37.808Z,31.50
2019-04-07T05:23:08.684Z,34.50
2019-04-07T05:25:39.098Z,33.73
2019-04-07T05:28:09.082Z,28.50
2019-04-07T05:30:39.184Z,33.10
2019-04-07T05:33:09.024Z,30.63
2019-04-07T05:35:39.490Z,31.83
2019-04-07T05:38:09.418Z,33.20
2019-04-07T05:40:39.946Z,31.20
2019-04-07T05:43:10.648Z,33.37
2019-04-07T05:45:41.077Z,30.68
2019-04-07T05:48:10.899Z,33.40
2019-04-07T05:50:40.732Z,32.48
2019-04-07T05:53:13.466Z,37.08
2019-04-07T05:55:42.601Z,31.55
2019-04-07T05:58:14.810Z,31.75
2019-04-07T06:00:46.950Z,32.03
2019-04-07T06:03:16.298Z,28.85
2019-04-07T06:05:48.288Z,32.55
2019-04-07T06:08:25.760Z,34.13
2019-04-07T06:10:50.016Z,33.43
2019-04-07T06:13:19.971Z,32.33
2019-04-07T06:15:51.939Z,32.00
2019-04-07T06:18:21.724Z,32.15
2019-04-07T06:20:52.601Z,27.73
2019-04-07T06:23:24.743Z,31.33
2019-04-07T06:25:56.866Z,33.25
2019-04-07T06:28:26.611Z,27.13
2019-04-07T06:30:59.174Z,29.27
2019-04-07T06:33:28.542Z,28.35
2019-04-07T06:35:59.440Z,30.35
2019-04-07T06:38:33.654Z,29.77
2019-04-07T06:41:02.047Z,26.23
2019-04-07T06:43:35.179Z,28.38
2019-04-07T06:46:27.637Z,24.43
2019-04-07T06:49:05.903Z,25.77
2019-04-07T06:51:52.824Z,24.43
2019-04-07T06:54:40.251Z,20.88
2019-04-07T06:57:18.527Z,23.40
2019-04-07T07:00:10.528Z,22.32
2019-04-07T07:02:51.152Z,26.50
2019-04-07T07:05:30.043Z,23.62
2019-04-07T07:08:11.703Z,25.05
2019-04-07T07:10:50.954Z,22.62
2019-04-07T07:13:43.092Z,24.10
2019-04-07T07:16:33.565Z,22.10
2019-04-07T07:19:24.426Z,21.05
2019-04-07T07:22:15.858Z,21.50
2019-04-07T07:24:46.769Z,20.35
2019-04-07T07:27:16.418Z,19.10
2019-04-07T07:29:47.600Z,27.17
2019-04-07T07:32:18.007Z,20.25
2019-04-07T07:34:47.961Z,21.02
2019-04-07T07:37:18.377Z,19.85
2019-04-07T07:39:48.715Z,19.35
2019-04-07T07:42:22.475Z,22.10
2019-04-07T07:44:51.341Z,16.23
2019-04-07T07:47:22.613Z,18.50
2019-04-07T07:49:52.822Z,18.80
2019-04-07T07:52:23.253Z,19.07
2019-04-07T07:54:53.637Z,19.87
2019-04-07T07:57:24.743Z,22.40
2019-04-07T07:59:55.281Z,18.50
2019-04-07T08:02:25.233Z,18.50
2019-04-07T08:04:58.456Z,18.62
2019-04-07T08:07:26.845Z,17.00
2019-04-07T08:09:58.040Z,16.50
2019-04-07T08:12:32.394Z,19.30
2019-04-07T08:15:00.489Z,15.95
2019-04-07T08:17:33.172Z,18.60
2019-04-07T08:20:02.413Z,18.17
2019-04-07T08:22:39.156Z,30.95
2019-04-07T08:25:04.239Z,16.77
2019-04-07T08:27:34.427Z,14.75
2019-04-07T08:30:10.198Z,16.77
2019-04-07T08:32:36.957Z,14.95
2019-04-07T08:35:07.922Z,15.50
2019-04-07T08:37:38.348Z,13.83
2019-04-07T08:40:09.358Z,14.90
2019-04-07T08:42:39.637Z,14.05
2019-04-07T08:45:09.520Z,15.00
2019-04-07T08:47:39.261Z,14.68
2019-04-07T08:50:09.432Z,13.25
2019-04-07T08:52:42.519Z,14.60
2019-04-07T08:55:10.965Z,13.05
2019-04-07T08:57:41.275Z,11.97
2019-04-07T09:00:17.449Z,12.37
2019-04-07T09:03:00.776Z,11.88
2019-04-07T09:05:26.742Z,13.08
2019-04-07T09:07:52.884Z,14.28
2019-04-07T09:10:28.332Z,13.08
2019-04-07T09:13:03.005Z,13.53
2019-04-07T09:15:51.286Z,12.45
2019-04-07T09:18:29.226Z,11.55
2019-04-07T09:21:20.696Z,20.17
2019-04-07T09:24:09.310Z,12.03
2019-04-07T09:26:54.442Z,12.47
2019-04-07T09:29:49.413Z,10.93
2019-04-07T09:32:41.631Z,13.68
2019-04-07T09:35:36.559Z,10.85
2019-04-07T09:38:26.180Z,14.65
2019-04-07T09:41:27.456Z,12.70
2019-04-07T09:44:33.957Z,13.62
2019-04-07T09:47:20.341Z,13.03
2019-04-07T09:50:02.855Z,12.25
2019-04-07T09:52:53.521Z,12.05
2019-04-07T09:55:58.238Z,13.28
2019-04-07T09:58:48.024Z,11.65
2019-04-07T10:01:28.601Z,13.18
2019-04-07T10:04:13.557Z,10.25
2019-04-07T10:06:49.650Z,10.45
2019-04-07T10:09:25.681Z,10.50
2019-04-07T10:12:03.352Z,9.90
2019-04-07T10:15:07.597Z,10.23
2019-04-07T10:17:43.833Z,11.12
2019-04-07T10:20:29.409Z,12.60
2019-04-07T10:23:08.020Z,14.58
2019-04-07T10:25:56.142Z,12.45
2019-04-07T10:28:57.553Z,12.30
2019-04-07T10:31:49.435Z,16.27
2019-04-07T10:34:50.978Z,14.87
2019-04-07T10:37:27.964Z,17.32
2019-04-07T10:40:20.940Z,19.48
2019-04-07T10:42:57.631Z,16.00
2019-04-07T10:45:39.369Z,16.48
2019-04-07T10:48:18.189Z,16.37
2019-04-07T10:51:25.510Z,21.60
2019-04-07T10:54:14.406Z,17.50
2019-04-07T10:57:18.877Z,15.55
2019-04-07T11:00:05.846Z,17.05
2019-04-07T11:02:52.768Z,23.05
2019-04-07T11:05:30.401Z,22.07
2019-04-07T11:08:37.641Z,18.73
2019-04-07T11:11:26.720Z,21.15
2019-04-07T11:14:09.716Z,24.85
2019-04-07T11:16:51.121Z,27.22
2019-04-07T11:19:45.133Z,19.05
2019-04-07T11:22:40.220Z,20.92
2019-04-07T11:25:28.435Z,20.62
2019-04-07T11:28:32.556Z,18.67
2019-04-07T11:31:27.764Z,20.20
2019-04-07T11:34:19.598Z,22.73
2019-04-07T11:37:17.860Z,16.77
2019-04-07T11:40:12.866Z,18.77
2019-04-07T11:43:07.488Z,20.95
2019-04-07T11:46:00.000Z,17.73
2019-04-07T11:48:31.911Z,22.42
2019-04-07T11:51:21.005Z,19.95
2019-04-07T11:54:06.105Z,18.25
2019-04-07T11:56:57.750Z,21.87
2019-04-07T11:59:45.915Z,22.27
2019-04-07T12:02:35.194Z,15.95
2019-04-07T12:05:25.215Z,17.32
2019-04-07T12:08:13.925Z,17.15
2019-04-07T12:11:04.909Z,18.45
2019-04-07T12:13:58.698Z,17.17
2019-04-07T12:16:39.161Z,15.13
2019-04-07T12:19:14.539Z,20.65
2019-04-07T12:21:52.992Z,17.52
2019-04-07T12:24:32.518Z,15.50
2019-04-07T12:27:27.317Z,15.58
2019-04-07T12:30:15.476Z,17.50
2019-04-07T12:32:55.174Z,17.27
2019-04-07T12:35:39.534Z,17.42
2019-04-07T12:38:43.185Z,15.78
2019-04-07T12:41:21.687Z,20.00
2019-04-07T12:44:00.616Z,23.38
2019-04-07T12:46:48.192Z,15.68
2019-04-07T12:49:39.199Z,15.38
2019-04-07T12:52:45.182Z,16.27
2019-04-07T12:55:39.317Z,17.40
2019-04-07T12:58:17.389Z,15.40
2019-04-07T13:00:59.956Z,15.90
2019-04-07T13:03:49.722Z,19.95
2019-04-07T13:06:30.191Z,14.90
2019-04-07T13:09:13.873Z,18.35
2019-04-07T13:12:06.062Z,17.85
2019-04-07T13:14:50.239Z,20.97
2019-04-07T13:17:55.234Z,16.80
2019-04-07T13:20:33.313Z,19.55
2019-04-07T13:23:12.257Z,15.20
2019-04-07T13:26:19.466Z,13.90
2019-04-07T13:29:01.797Z,14.33
2019-04-07T13:31:44.000Z,14.58
2019-04-07T13:34:28.581Z,19.00
2019-04-07T13:37:13.477Z,19.52
2019-04-07T13:39:58.788Z,17.70
2019-04-07T13:43:00.702Z,16.25
2019-04-07T13:45:44.627Z,15.80
2019-04-07T13:48:23.838Z,17.65
2019-04-07T13:51:22.329Z,20.48
2019-04-07T13:54:12.391Z,16.40
2019-04-07T13:56:54.889Z,16.00
2019-04-07T13:59:42.626Z,15.58
2019-04-07T14:02:18.583Z,15.78
2019-04-07T14:05:03.188Z,17.95
2019-04-07T14:07:40.169Z,12.35
2019-04-07T14:10:28.563Z,14.90
2019-04-07T14:13:23.300Z,13.53
2019-04-07T14:16:11.140Z,14.78
2019-04-07T14:18:58.767Z,10.95
2019-04-07T14:21:50.816Z,13.93
2019-04-07T14:24:57.971Z,12.40
2019-04-07T14:27:37.336Z,19.60
2019-04-07T14:30:22.292Z,15.30
2019-04-07T14:33:10.071Z,11.83
2019-04-07T14:35:46.161Z,13.13
2019-04-07T14:38:25.537Z,13.03
2019-04-07T14:41:13.867Z,14.53
2019-04-07T14:43:51.782Z,15.75
2019-04-07T14:46:35.949Z,14.03
2019-04-07T14:49:16.010Z,14.90
2019-04-07T14:52:01.346Z,14.23
2019-04-07T14:54:56.466Z,13.88
2019-04-07T14:57:43.721Z,11.68
2019-04-07T15:00:27.280Z,16.65
2019-04-07T15:02:58.018Z,14.98
2019-04-07T15:05:31.026Z,18.20
2019-04-07T15:08:12.524Z,18.25
2019-04-07T15:10:46.204Z,23.30
2019-04-07T15:13:21.289Z,15.20
2019-04-07T15:15:51.433Z,21.35
2019-04-07T15:18:21.800Z,20.05
2019-04-07T15:20:51.699Z,17.98
2019-04-07T15:23:21.639Z,20.82
2019-04-07T15:25:51.601Z,16.95
2019-04-07T15:28:22.567Z,20.15
2019-04-07T15:30:52.484Z,17.52
2019-04-07T15:33:22.545Z,15.15
2019-04-07T15:35:52.452Z,14.05
2019-04-07T15:38:24.821Z,14.98
2019-04-07T15:40:53.670Z,16.85
2019-04-07T15:43:24.268Z,18.87
2019-04-07T15:45:54.647Z,17.20
2019-04-07T15:48:25.925Z,18.05
2019-04-07T15:50:56.212Z,18.60
2019-04-07T15:53:26.149Z,18.57
2019-04-07T15:56:01.964Z,24.40
2019-04-07T15:58:28.522Z,19.37
2019-04-07T16:00:59.045Z,19.90
2019-04-07T16:03:28.861Z,22.75
2019-04-07T16:05:59.158Z,19.25
2019-04-07T16:08:30.805Z,22.60
2019-04-07T16:11:00.834Z,23.98
2019-04-07T16:13:31.734Z,18.25
2019-04-07T16:16:01.854Z,16.85
2019-04-07T16:18:36.991Z,16.30
2019-04-07T16:21:07.175Z,17.90
2019-04-07T16:23:36.393Z,22.22
2019-04-07T16:26:06.667Z,16.30
2019-04-07T16:28:36.464Z,19.75
2019-04-07T16:31:07.355Z,17.85
2019-04-07T16:33:37.701Z,17.10
2019-04-07T16:36:08.534Z,17.65
2019-04-07T16:38:38.604Z,16.55
2019-04-07T16:41:12.341Z,16.07
2019-04-07T16:43:39.890Z,16.65
2019-04-07T16:46:10.842Z,18.75
2019-04-07T16:48:41.507Z,12.53
2019-04-07T16:51:11.473Z,19.02
2019-04-07T16:53:42.977Z,15.58
2019-04-07T16:56:13.337Z,16.93
2019-04-07T16:58:43.685Z,20.68
2019-04-07T17:01:14.276Z,15.53
2019-04-07T17:03:45.311Z,16.25
2019-04-07T17:06:15.882Z,16.05
2019-04-07T17:08:46.581Z,14.78
2019-04-07T17:11:17.035Z,14.85
2019-04-07T17:13:47.257Z,13.98
2019-04-07T17:16:22.145Z,15.30
2019-04-07T17:18:50.290Z,15.08
2019-04-07T17:21:21.270Z,15.70
2019-04-07T17:23:55.314Z,16.25
2019-04-07T17:26:23.841Z,17.60
2019-04-07T17:28:56.057Z,17.10
2019-04-07T17:31:27.990Z,12.75
2019-04-07T17:33:58.582Z,15.35
2019-04-07T17:36:29.296Z,17.25
2019-04-07T17:39:21.614Z,17.92
2019-04-07T17:41:52.031Z,15.18
2019-04-07T17:44:47.832Z,12.75
2019-04-07T17:47:50.205Z,14.78
2019-04-07T17:50:33.906Z,15.13
2019-04-07T17:53:26.693Z,14.85
2019-04-07T17:56:08.717Z,22.93
2019-04-07T17:58:50.029Z,17.70
2019-04-07T18:01:30.458Z,12.53
2019-04-07T18:04:23.661Z,16.97
2019-04-07T18:07:09.993Z,15.40
2019-04-07T18:10:10.796Z,13.05
2019-04-07T18:12:49.749Z,15.28
2019-04-07T18:15:44.523Z,14.53
2019-04-07T18:18:45.279Z,14.95
2019-04-07T18:21:32.023Z,14.23
2019-04-07T18:24:35.985Z,16.93
2019-04-07T18:27:34.204Z,14.83
2019-04-07T18:30:23.573Z,13.78
2019-04-07T18:33:16.388Z,15.63
2019-04-07T18:35:56.097Z,14.80
2019-04-07T18:38:46.856Z,14.30
2019-04-07T18:41:36.369Z,12.70
2019-04-07T18:44:30.530Z,15.23
2019-04-07T18:47:15.345Z,16.00
2019-04-07T18:50:03.952Z,14.33
2019-04-07T18:53:00.148Z,14.23
2019-04-07T18:55:55.742Z,13.13
2019-04-07T18:58:47.643Z,16.73
2019-04-07T19:01:34.254Z,14.03
2019-04-07T19:04:24.154Z,13.50
2019-04-07T19:07:02.142Z,13.53
2019-04-07T19:10:05.725Z,12.78
2019-04-07T19:12:36.970Z,12.95
2019-04-07T19:15:31.097Z,14.70
2019-04-07T19:18:08.092Z,13.18
2019-04-07T19:21:16.162Z,14.05
2019-04-07T19:24:07.629Z,13.15
2019-04-07T19:27:05.658Z,13.62
2019-04-07T19:29:57.987Z,13.55
2019-04-07T19:32:52.630Z,14.20
2019-04-07T19:35:49.932Z,17.23
2019-04-07T19:38:51.371Z,14.45
2019-04-07T19:41:47.230Z,12.43
2019-04-07T19:44:35.577Z,12.53
2019-04-07T19:47:34.537Z,13.95
2019-04-07T19:50:30.891Z,14.20
2019-04-07T19:53:22.798Z,14.35
2019-04-07T19:56:27.292Z,12.98
2019-04-07T19:59:14.673Z,14.58
2019-04-07T20:02:09.639Z,12.18
2019-04-07T20:04:59.334Z,12.65
2019-04-07T20:07:44.114Z,12.93
2019-04-07T20:10:31.825Z,11.55
2019-04-07T20:13:24.085Z,13.15
2019-04-07T20:16:00.353Z,13.03
2019-04-07T20:18:48.117Z,11.08
2019-04-07T20:21:42.217Z,15.10
2019-04-07T20:24:38.289Z,15.63
2019-04-07T20:27:17.516Z,11.33
2019-04-07T20:30:11.264Z,13.20
2019-04-07T20:32:47.048Z,11.83
2019-04-07T20:35:35.661Z,12.10
2019-04-07T20:38:19.816Z,12.45
2019-04-07T20:40:55.307Z,10.65
2019-04-07T20:43:33.778Z,12.65
2019-04-07T20:46:26.248Z,13.03
2019-04-07T20:49:15.897Z,15.90
2019-04-07T20:52:03.862Z,13.25
2019-04-07T20:54:44.694Z,10.25
2019-04-07T20:57:28.515Z,10.50
2019-04-07T21:00:16.539Z,16.10
2019-04-07T21:03:11.074Z,12.68
2019-04-07T21:05:48.345Z,16.48
2019-04-07T21:08:40.225Z,10.43
2019-04-07T21:11:20.474Z,11.70
2019-04-07T21:14:21.701Z,11.97
2019-04-07T21:17:01.038Z,14.15
2019-04-07T21:19:55.470Z,14.13
2019-04-07T21:22:31.658Z,13.15
2019-04-07T21:25:26.458Z,11.08
2019-04-07T21:28:10.537Z,15.08
2019-04-07T21:31:15.980Z,11.75
2019-04-07T21:33:50.819Z,10.55
2019-04-07T21:36:52.580Z,12.58
2019-04-07T21:39:35.236Z,14.47
2019-04-07T21:42:30.770Z,14.70
2019-04-07T21:45:29.089Z,11.53
2019-04-07T21:48:09.573Z,14.40
2019-04-07T21:51:04.663Z,13.08
2019-04-07T21:53:43.212Z,12.63
2019-04-07T21:56:38.984Z,16.20
2019-04-07T21:59:31.105Z,12.90
2019-04-07T22:02:20.205Z,14.20
2019-04-07T22:05:04.581Z,14.73
2019-04-07T22:07:53.579Z,15.08
2019-04-07T22:10:24.251Z,16.67
2019-04-07T22:12:54.201Z,15.43
2019-04-07T22:15:24.629Z,15.20
2019-04-07T22:17:54.353Z,14.03
2019-04-07T22:20:25.013Z,15.43
2019-04-07T22:22:59.770Z,15.18
2019-04-07T22:25:36.204Z,19.45
2019-04-07T22:28:05.957Z,13.32
2019-04-07T22:30:39.653Z,15.20
2019-04-07T22:33:06.613Z,16.52
2019-04-07T22:35:38.357Z,16.67
2019-04-07T22:38:08.058Z,12.58
2019-04-07T22:40:39.133Z,14.20
2019-04-07T22:43:09.343Z,16.62
2019-04-07T22:45:39.350Z,17.07
2019-04-07T22:48:09.983Z,14.03
2019-04-07T22:50:39.849Z,14.30
2019-04-07T22:53:09.536Z,13.25
2019-04-07T22:55:40.412Z,17.52
2019-04-07T22:58:10.126Z,14.75
2019-04-07T23:00:40.334Z,17.55
2019-04-07T23:03:12.072Z,13.60
2019-04-07T23:05:41.997Z,16.67
2019-04-07T23:08:12.456Z,17.60
2019-04-07T23:10:44.232Z,14.53
2019-04-07T23:13:14.181Z,15.85
2019-04-07T23:15:47.040Z,17.20
2019-04-07T23:18:17.885Z,16.48
2019-04-07T23:20:47.983Z,21.33
2019-04-07T23:23:17.754Z,15.00
2019-04-07T23:25:47.488Z,14.10
2019-04-07T23:28:17.274Z,16.95
2019-04-07T23:30:47.201Z,18.37
2019-04-07T23:33:17.908Z,18.60
2019-04-07T23:35:48.830Z,15.93
2019-04-07T23:38:19.742Z,14.58
2019-04-07T23:40:49.612Z,18.00
2019-04-07T23:43:19.526Z,21.37
2019-04-07T23:45:49.654Z,15.25
2019-04-07T23:48:19.503Z,16.17
2019-04-07T23:50:49.855Z,14.93
2019-04-07T23:53:55.837Z,15.25
2019-04-07T23:56:25.639Z,17.82
2019-04-07T23:58:56.253Z,18.05
